sensor_id;sensor_type;location;lat;lon;timestamp;P1;durP1;ratioP1;P2;durP2;ratioP2
58972;SDS011;44750;52.040;7.472;2022-11-20T00:02:04;3.95;;;2.83;;
58972;SDS011;44750;52.040;7.472;2022-11-20T00:07:05;3.42;;;2.40;;
58972;SDS011;44750;52.040;7.472;2022-11-20T00:12:05;3.17;;;2.47;;
58972;SDS011;44750;52.040;7.472;2022-11-20T00:17:05;2.28;;;2.08;;
58972;SDS011;44750;52.040;7.472;2022-11-20T00:22:05;2.67;;;2.40;;
58972;SDS011;44750;52.040;7.472;2022-11-20T00:27:05;3.13;;;2.83;;
58972;SDS011;44750;52.040;7.472;2022-11-20T00:32:06;3.92;;;3.20;;
58972;SDS011;44750;52.040;7.472;2022-11-20T00:37:06;5.53;;;2.35;;
58972;SDS011;44750;52.040;7.472;2022-11-20T00:42:06;2.47;;;2.10;;
58972;SDS011;44750;52.040;7.472;2022-11-20T00:47:06;3.72;;;1.92;;
58972;SDS011;44750;52.040;7.472;2022-11-20T00:52:07;2.97;;;2.70;;
58972;SDS011;44750;52.040;7.472;2022-11-20T00:57:07;7.90;;;4.15;;
58972;SDS011;44750;52.040;7.472;2022-11-20T01:02:07;2.28;;;2.08;;
58972;SDS011;44750;52.040;7.472;2022-11-20T01:07:07;4.25;;;3.50;;
58972;SDS011;44750;52.040;7.472;2022-11-20T01:12:07;4.07;;;3.40;;
58972;SDS011;44750;52.040;7.472;2022-11-20T01:17:08;3.45;;;3.15;;
58972;SDS011;44750;52.040;7.472;2022-11-20T01:22:08;2.90;;;2.67;;
58972;SDS011;44750;52.040;7.472;2022-11-20T01:27:08;2.60;;;2.40;;
58972;SDS011;44750;52.040;7.472;2022-11-20T01:32:08;4.32;;;3.90;;
58972;SDS011;44750;52.040;7.472;2022-11-20T01:37:08;2.88;;;2.42;;
58972;SDS011;44750;52.040;7.472;2022-11-20T01:42:09;2.97;;;2.75;;
58972;SDS011;44750;52.040;7.472;2022-11-20T01:47:09;3.40;;;3.05;;
58972;SDS011;44750;52.040;7.472;2022-11-20T01:57:17;2.40;;;2.20;;
58972;SDS011;44750;52.040;7.472;2022-11-20T02:02:20;5.25;;;3.60;;
58972;SDS011;44750;52.040;7.472;2022-11-20T02:07:20;2.83;;;2.53;;
58972;SDS011;44750;52.040;7.472;2022-11-20T02:12:22;4.85;;;3.13;;
58972;SDS011;44750;52.040;7.472;2022-11-20T02:17:23;2.70;;;2.50;;
58972;SDS011;44750;52.040;7.472;2022-11-20T02:22:29;2.25;;;2.05;;
58972;SDS011;44750;52.040;7.472;2022-11-20T02:27:39;5.18;;;2.92;;
58972;SDS011;44750;52.040;7.472;2022-11-20T02:32:39;3.23;;;2.93;;
58972;SDS011;44750;52.040;7.472;2022-11-20T02:37:39;4.82;;;3.75;;
58972;SDS011;44750;52.040;7.472;2022-11-20T02:42:39;4.35;;;3.55;;
58972;SDS011;44750;52.040;7.472;2022-11-20T02:47:40;2.92;;;2.40;;
58972;SDS011;44750;52.040;7.472;2022-11-20T02:52:40;5.22;;;3.40;;
58972;SDS011;44750;52.040;7.472;2022-11-20T02:57:40;3.60;;;3.30;;
58972;SDS011;44750;52.040;7.472;2022-11-20T03:02:40;6.47;;;3.88;;
58972;SDS011;44750;52.040;7.472;2022-11-20T03:07:41;4.65;;;3.90;;
58972;SDS011;44750;52.040;7.472;2022-11-20T03:12:43;4.47;;;3.92;;
58972;SDS011;44750;52.040;7.472;2022-11-20T03:17:43;3.72;;;3.42;;
58972;SDS011;44750;52.040;7.472;2022-11-20T03:22:44;7.93;;;3.67;;
58972;SDS011;44750;52.040;7.472;2022-11-20T03:27:44;5.72;;;3.75;;
58972;SDS011;44750;52.040;7.472;2022-11-20T03:32:44;4.22;;;3.20;;
58972;SDS011;44750;52.040;7.472;2022-11-20T03:37:45;4.35;;;3.88;;
58972;SDS011;44750;52.040;7.472;2022-11-20T03:42:45;3.25;;;2.95;;
58972;SDS011;44750;52.040;7.472;2022-11-20T03:47:45;4.13;;;2.97;;
58972;SDS011;44750;52.040;7.472;2022-11-20T03:52:46;8.45;;;3.97;;
58972;SDS011;44750;52.040;7.472;2022-11-20T03:57:46;4.20;;;3.47;;
58972;SDS011;44750;52.040;7.472;2022-11-20T04:02:46;3.25;;;2.85;;
58972;SDS011;44750;52.040;7.472;2022-11-20T04:07:47;3.63;;;2.85;;
58972;SDS011;44750;52.040;7.472;2022-11-20T04:12:47;4.97;;;3.45;;
58972;SDS011;44750;52.040;7.472;2022-11-20T04:17:47;8.50;;;4.28;;
58972;SDS011;44750;52.040;7.472;2022-11-20T04:22:47;5.13;;;3.22;;
58972;SDS011;44750;52.040;7.472;2022-11-20T04:27:47;6.18;;;3.30;;
58972;SDS011;44750;52.040;7.472;2022-11-20T04:32:48;4.97;;;3.58;;
58972;SDS011;44750;52.040;7.472;2022-11-20T04:37:50;4.65;;;3.40;;
58972;SDS011;44750;52.040;7.472;2022-11-20T04:42:51;6.32;;;3.78;;
58972;SDS011;44750;52.040;7.472;2022-11-20T04:47:51;4.20;;;3.47;;
58972;SDS011;44750;52.040;7.472;2022-11-20T04:52:52;3.63;;;2.80;;
58972;SDS011;44750;52.040;7.472;2022-11-20T04:57:52;8.77;;;3.85;;
58972;SDS011;44750;52.040;7.472;2022-11-20T05:02:53;6.30;;;4.20;;
58972;SDS011;44750;52.040;7.472;2022-11-20T05:07:55;2.88;;;2.60;;
58972;SDS011;44750;52.040;7.472;2022-11-20T05:12:56;4.45;;;3.50;;
58972;SDS011;44750;52.040;7.472;2022-11-20T05:17:57;4.38;;;3.72;;
58972;SDS011;44750;52.040;7.472;2022-11-20T05:22:57;3.83;;;3.30;;
58972;SDS011;44750;52.040;7.472;2022-11-20T05:27:57;3.80;;;3.40;;
58972;SDS011;44750;52.040;7.472;2022-11-20T05:32:57;2.95;;;2.75;;
58972;SDS011;44750;52.040;7.472;2022-11-20T05:37:59;3.88;;;3.42;;
58972;SDS011;44750;52.040;7.472;2022-11-20T05:42:59;2.60;;;2.40;;
58972;SDS011;44750;52.040;7.472;2022-11-20T05:48:00;4.68;;;4.00;;
58972;SDS011;44750;52.040;7.472;2022-11-20T05:53:00;5.60;;;3.42;;
58972;SDS011;44750;52.040;7.472;2022-11-20T05:58:00;5.28;;;3.42;;
58972;SDS011;44750;52.040;7.472;2022-11-20T06:03:01;6.22;;;4.60;;
58972;SDS011;44750;52.040;7.472;2022-11-20T06:08:01;5.13;;;3.88;;
58972;SDS011;44750;52.040;7.472;2022-11-20T06:13:02;3.53;;;3.17;;
58972;SDS011;44750;52.040;7.472;2022-11-20T06:18:02;3.25;;;2.65;;
58972;SDS011;44750;52.040;7.472;2022-11-20T06:23:02;4.07;;;3.67;;
58972;SDS011;44750;52.040;7.472;2022-11-20T06:28:02;4.63;;;3.47;;
58972;SDS011;44750;52.040;7.472;2022-11-20T06:33:03;4.00;;;3.67;;
58972;SDS011;44750;52.040;7.472;2022-11-20T06:38:03;5.78;;;4.85;;
58972;SDS011;44750;52.040;7.472;2022-11-20T06:43:03;3.40;;;3.10;;
58972;SDS011;44750;52.040;7.472;2022-11-20T06:48:03;6.55;;;4.50;;
58972;SDS011;44750;52.040;7.472;2022-11-20T06:53:04;4.22;;;3.83;;
58972;SDS011;44750;52.040;7.472;2022-11-20T06:58:05;3.45;;;3.15;;
58972;SDS011;44750;52.040;7.472;2022-11-20T07:03:05;4.55;;;4.05;;
58972;SDS011;44750;52.040;7.472;2022-11-20T07:08:07;6.47;;;3.95;;
58972;SDS011;44750;52.040;7.472;2022-11-20T07:13:08;7.70;;;4.28;;
58972;SDS011;44750;52.040;7.472;2022-11-20T07:18:08;12.52;;;4.03;;
58972;SDS011;44750;52.040;7.472;2022-11-20T07:23:08;11.63;;;3.92;;
58972;SDS011;44750;52.040;7.472;2022-11-20T07:28:08;11.00;;;3.72;;
58972;SDS011;44750;52.040;7.472;2022-11-20T07:33:09;7.20;;;3.78;;
58972;SDS011;44750;52.040;7.472;2022-11-20T07:38:09;6.28;;;4.35;;
58972;SDS011;44750;52.040;7.472;2022-11-20T07:43:09;9.25;;;6.00;;
58972;SDS011;44750;52.040;7.472;2022-11-20T07:48:09;9.23;;;5.07;;
58972;SDS011;44750;52.040;7.472;2022-11-20T07:53:09;16.98;;;5.78;;
58972;SDS011;44750;52.040;7.472;2022-11-20T07:58:09;10.00;;;5.50;;
58972;SDS011;44750;52.040;7.472;2022-11-20T08:03:18;8.48;;;4.93;;
58972;SDS011;44750;52.040;7.472;2022-11-20T08:08:19;13.57;;;5.10;;
58972;SDS011;44750;52.040;7.472;2022-11-20T08:13:20;18.92;;;4.90;;
58972;SDS011;44750;52.040;7.472;2022-11-20T08:18:21;25.67;;;6.32;;
58972;SDS011;44750;52.040;7.472;2022-11-20T08:23:22;11.57;;;4.43;;
58972;SDS011;44750;52.040;7.472;2022-11-20T08:28:22;23.83;;;6.25;;
58972;SDS011;44750;52.040;7.472;2022-11-20T08:33:23;21.17;;;6.43;;
58972;SDS011;44750;52.040;7.472;2022-11-20T08:38:23;18.98;;;6.78;;
58972;SDS011;44750;52.040;7.472;2022-11-20T08:43:23;50.42;;;7.20;;
58972;SDS011;44750;52.040;7.472;2022-11-20T08:48:23;17.55;;;6.72;;
58972;SDS011;44750;52.040;7.472;2022-11-20T08:53:23;21.02;;;7.70;;
58972;SDS011;44750;52.040;7.472;2022-11-20T08:58:24;17.67;;;8.20;;
58972;SDS011;44750;52.040;7.472;2022-11-20T09:03:25;10.50;;;7.47;;
58972;SDS011;44750;52.040;7.472;2022-11-20T09:08:26;9.68;;;6.65;;
58972;SDS011;44750;52.040;7.472;2022-11-20T09:13:27;18.70;;;6.72;;
58972;SDS011;44750;52.040;7.472;2022-11-20T09:18:28;8.85;;;6.32;;
58972;SDS011;44750;52.040;7.472;2022-11-20T09:23:32;8.07;;;6.03;;
58972;SDS011;44750;52.040;7.472;2022-11-20T09:28:34;4.53;;;4.13;;
58972;SDS011;44750;52.040;7.472;2022-11-20T09:33:35;9.73;;;5.55;;
58972;SDS011;44750;52.040;7.472;2022-11-20T09:38:35;6.55;;;5.75;;
58972;SDS011;44750;52.040;7.472;2022-11-20T09:49:25;6.97;;;6.00;;
58972;SDS011;44750;52.040;7.472;2022-11-20T09:54:31;8.77;;;5.25;;
58972;SDS011;44750;52.040;7.472;2022-11-20T09:59:42;6.10;;;4.95;;
58972;SDS011;44750;52.040;7.472;2022-11-20T10:04:45;14.18;;;5.80;;
58972;SDS011;44750;52.040;7.472;2022-11-20T10:09:55;7.72;;;6.22;;
58972;SDS011;44750;52.040;7.472;2022-11-20T10:25:39;5.03;;;4.50;;
58972;SDS011;44750;52.040;7.472;2022-11-20T10:30:43;7.00;;;5.75;;
58972;SDS011;44750;52.040;7.472;2022-11-20T10:35:50;10.70;;;5.85;;
58972;SDS011;44750;52.040;7.472;2022-11-20T10:41:05;5.88;;;4.95;;
58972;SDS011;44750;52.040;7.472;2022-11-20T10:46:08;5.60;;;5.03;;
58972;SDS011;44750;52.040;7.472;2022-11-20T10:56:51;14.88;;;6.38;;
58972;SDS011;44750;52.040;7.472;2022-11-20T11:01:52;7.22;;;5.30;;
58972;SDS011;44750;52.040;7.472;2022-11-20T11:06:52;6.47;;;5.82;;
58972;SDS011;44750;52.040;7.472;2022-11-20T11:11:56;6.83;;;5.53;;
58972;SDS011;44750;52.040;7.472;2022-11-20T11:16:57;8.55;;;6.03;;
58972;SDS011;44750;52.040;7.472;2022-11-20T11:21:58;10.05;;;5.18;;
58972;SDS011;44750;52.040;7.472;2022-11-20T11:27:00;8.95;;;5.43;;
58972;SDS011;44750;52.040;7.472;2022-11-20T11:32:19;5.85;;;5.25;;
58972;SDS011;44750;52.040;7.472;2022-11-20T11:37:20;6.47;;;5.60;;
58972;SDS011;44750;52.040;7.472;2022-11-20T11:42:21;6.10;;;5.10;;
58972;SDS011;44750;52.040;7.472;2022-11-20T11:52:26;3.65;;;3.28;;
58972;SDS011;44750;52.040;7.472;2022-11-20T12:13:31;3.13;;;2.63;;
58972;SDS011;44750;52.040;7.472;2022-11-20T12:18:40;4.75;;;3.30;;
58972;SDS011;44750;52.040;7.472;2022-11-20T12:34:52;4.35;;;3.22;;
58972;SDS011;44750;52.040;7.472;2022-11-20T12:39:54;3.58;;;3.25;;
58972;SDS011;44750;52.040;7.472;2022-11-20T12:50:22;3.28;;;2.60;;
58972;SDS011;44750;52.040;7.472;2022-11-20T12:55:36;3.30;;;2.90;;
58972;SDS011;44750;52.040;7.472;2022-11-20T13:00:56;8.15;;;4.20;;
58972;SDS011;44750;52.040;7.472;2022-11-20T13:06:17;4.10;;;3.05;;
58972;SDS011;44750;52.040;7.472;2022-11-20T13:11:39;7.30;;;4.22;;
58972;SDS011;44750;52.040;7.472;2022-11-20T13:22:08;6.55;;;4.68;;
58972;SDS011;44750;52.040;7.472;2022-11-20T13:32:19;4.28;;;3.40;;
58972;SDS011;44750;52.040;7.472;2022-11-20T13:37:25;7.03;;;3.67;;
58972;SDS011;44750;52.040;7.472;2022-11-20T13:42:29;4.15;;;3.75;;
58972;SDS011;44750;52.040;7.472;2022-11-20T13:47:29;3.87;;;3.30;;
58972;SDS011;44750;52.040;7.472;2022-11-20T13:52:39;4.30;;;3.83;;
58972;SDS011;44750;52.040;7.472;2022-11-20T14:08:06;7.90;;;3.97;;
58972;SDS011;44750;52.040;7.472;2022-11-20T14:13:19;6.90;;;4.50;;
58972;SDS011;44750;52.040;7.472;2022-11-20T14:18:21;6.10;;;3.75;;
58972;SDS011;44750;52.040;7.472;2022-11-20T14:23:28;7.30;;;4.22;;
58972;SDS011;44750;52.040;7.472;2022-11-20T14:28:29;7.53;;;5.22;;
58972;SDS011;44750;52.040;7.472;2022-11-20T14:33:30;5.85;;;4.93;;
58972;SDS011;44750;52.040;7.472;2022-11-20T14:38:33;7.30;;;5.40;;
58972;SDS011;44750;52.040;7.472;2022-11-20T14:43:33;8.52;;;6.28;;
58972;SDS011;44750;52.040;7.472;2022-11-20T14:48:41;10.43;;;7.43;;
58972;SDS011;44750;52.040;7.472;2022-11-20T14:53:45;17.33;;;8.45;;
58972;SDS011;44750;52.040;7.472;2022-11-20T14:58:45;8.68;;;7.07;;
58972;SDS011;44750;52.040;7.472;2022-11-20T15:04:05;12.02;;;7.30;;
58972;SDS011;44750;52.040;7.472;2022-11-20T15:09:13;8.90;;;7.97;;
58972;SDS011;44750;52.040;7.472;2022-11-20T15:14:14;10.88;;;7.00;;
58972;SDS011;44750;52.040;7.472;2022-11-20T15:19:25;11.77;;;5.93;;
58972;SDS011;44750;52.040;7.472;2022-11-20T15:24:27;11.02;;;7.03;;
58972;SDS011;44750;52.040;7.472;2022-11-20T15:29:27;7.53;;;5.65;;
58972;SDS011;44750;52.040;7.472;2022-11-20T15:34:28;7.10;;;5.97;;
58972;SDS011;44750;52.040;7.472;2022-11-20T15:39:28;11.57;;;6.13;;
58972;SDS011;44750;52.040;7.472;2022-11-20T15:44:28;11.32;;;7.50;;
58972;SDS011;44750;52.040;7.472;2022-11-20T15:49:29;7.03;;;5.55;;
58972;SDS011;44750;52.040;7.472;2022-11-20T15:54:29;8.43;;;6.07;;
58972;SDS011;44750;52.040;7.472;2022-11-20T15:59:29;10.13;;;5.65;;
58972;SDS011;44750;52.040;7.472;2022-11-20T16:04:29;10.40;;;6.28;;
58972;SDS011;44750;52.040;7.472;2022-11-20T16:09:29;9.63;;;6.40;;
58972;SDS011;44750;52.040;7.472;2022-11-20T16:14:30;10.07;;;5.90;;
58972;SDS011;44750;52.040;7.472;2022-11-20T16:19:30;7.10;;;6.20;;
58972;SDS011;44750;52.040;7.472;2022-11-20T16:24:30;7.07;;;5.65;;
58972;SDS011;44750;52.040;7.472;2022-11-20T16:29:31;9.65;;;6.82;;
58972;SDS011;44750;52.040;7.472;2022-11-20T16:34:31;7.73;;;5.60;;
58972;SDS011;44750;52.040;7.472;2022-11-20T16:39:31;9.63;;;5.43;;
58972;SDS011;44750;52.040;7.472;2022-11-20T16:44:31;21.48;;;7.15;;
58972;SDS011;44750;52.040;7.472;2022-11-20T16:49:32;6.32;;;5.40;;
58972;SDS011;44750;52.040;7.472;2022-11-20T16:54:32;7.07;;;5.75;;
58972;SDS011;44750;52.040;7.472;2022-11-20T16:59:32;6.13;;;5.50;;
58972;SDS011;44750;52.040;7.472;2022-11-20T17:04:32;10.90;;;7.25;;
58972;SDS011;44750;52.040;7.472;2022-11-20T17:09:33;8.63;;;5.38;;
58972;SDS011;44750;52.040;7.472;2022-11-20T17:14:33;5.15;;;4.43;;
58972;SDS011;44750;52.040;7.472;2022-11-20T17:19:33;6.53;;;5.43;;
58972;SDS011;44750;52.040;7.472;2022-11-20T17:24:35;6.93;;;4.80;;
58972;SDS011;44750;52.040;7.472;2022-11-20T17:29:35;4.40;;;4.00;;
58972;SDS011;44750;52.040;7.472;2022-11-20T17:34:35;5.70;;;5.13;;
58972;SDS011;44750;52.040;7.472;2022-11-20T17:39:35;8.70;;;5.90;;
58972;SDS011;44750;52.040;7.472;2022-11-20T17:44:35;5.32;;;4.65;;
58972;SDS011;44750;52.040;7.472;2022-11-20T17:49:36;4.32;;;3.92;;
58972;SDS011;44750;52.040;7.472;2022-11-20T17:54:36;6.97;;;5.60;;
58972;SDS011;44750;52.040;7.472;2022-11-20T17:59:36;7.07;;;5.82;;
58972;SDS011;44750;52.040;7.472;2022-11-20T18:04:38;9.20;;;5.35;;
58972;SDS011;44750;52.040;7.472;2022-11-20T18:09:38;7.97;;;5.70;;
58972;SDS011;44750;52.040;7.472;2022-11-20T18:14:39;7.15;;;5.95;;
58972;SDS011;44750;52.040;7.472;2022-11-20T18:19:40;5.97;;;5.15;;
58972;SDS011;44750;52.040;7.472;2022-11-20T18:24:44;10.30;;;6.50;;
58972;SDS011;44750;52.040;7.472;2022-11-20T18:29:45;7.78;;;6.47;;
58972;SDS011;44750;52.040;7.472;2022-11-20T18:34:46;5.85;;;5.13;;
58972;SDS011;44750;52.040;7.472;2022-11-20T18:39:46;6.03;;;5.43;;
58972;SDS011;44750;52.040;7.472;2022-11-20T18:44:47;6.67;;;5.97;;
58972;SDS011;44750;52.040;7.472;2022-11-20T18:49:49;11.20;;;6.55;;
58972;SDS011;44750;52.040;7.472;2022-11-20T18:54:53;8.07;;;6.70;;
58972;SDS011;44750;52.040;7.472;2022-11-20T18:59:54;6.13;;;5.05;;
58972;SDS011;44750;52.040;7.472;2022-11-20T19:04:55;9.18;;;4.95;;
58972;SDS011;44750;52.040;7.472;2022-11-20T19:09:55;10.30;;;6.82;;
58972;SDS011;44750;52.040;7.472;2022-11-20T19:14:56;8.10;;;6.22;;
58972;SDS011;44750;52.040;7.472;2022-11-20T19:19:56;7.47;;;5.55;;
58972;SDS011;44750;52.040;7.472;2022-11-20T19:24:56;5.17;;;4.27;;
58972;SDS011;44750;52.040;7.472;2022-11-20T19:29:57;7.03;;;4.60;;
58972;SDS011;44750;52.040;7.472;2022-11-20T19:34:57;6.32;;;4.72;;
58972;SDS011;44750;52.040;7.472;2022-11-20T19:39:57;5.13;;;4.28;;
58972;SDS011;44750;52.040;7.472;2022-11-20T19:44:57;12.38;;;5.60;;
58972;SDS011;44750;52.040;7.472;2022-11-20T19:49:57;3.85;;;3.45;;
58972;SDS011;44750;52.040;7.472;2022-11-20T19:54:57;3.58;;;3.25;;
58972;SDS011;44750;52.040;7.472;2022-11-20T19:59:58;2.97;;;2.78;;
58972;SDS011;44750;52.040;7.472;2022-11-20T20:04:58;3.45;;;3.15;;
58972;SDS011;44750;52.040;7.472;2022-11-20T20:09:58;4.15;;;3.30;;
58972;SDS011;44750;52.040;7.472;2022-11-20T20:14:58;7.03;;;3.42;;
58972;SDS011;44750;52.040;7.472;2022-11-20T20:19:58;4.75;;;3.20;;
58972;SDS011;44750;52.040;7.472;2022-11-20T20:24:59;3.40;;;2.95;;
58972;SDS011;44750;52.040;7.472;2022-11-20T20:29:59;6.55;;;4.22;;
58972;SDS011;44750;52.040;7.472;2022-11-20T20:34:59;4.53;;;3.10;;
58972;SDS011;44750;52.040;7.472;2022-11-20T20:40:00;4.60;;;3.72;;
58972;SDS011;44750;52.040;7.472;2022-11-20T20:45:00;4.22;;;3.45;;
58972;SDS011;44750;52.040;7.472;2022-11-20T20:50:00;4.47;;;4.07;;
58972;SDS011;44750;52.040;7.472;2022-11-20T20:55:02;6.40;;;3.97;;
58972;SDS011;44750;52.040;7.472;2022-11-20T21:00:03;4.30;;;3.08;;
58972;SDS011;44750;52.040;7.472;2022-11-20T21:05:05;5.50;;;4.40;;
58972;SDS011;44750;52.040;7.472;2022-11-20T21:10:05;4.63;;;4.22;;
58972;SDS011;44750;52.040;7.472;2022-11-20T21:15:05;3.97;;;3.50;;
58972;SDS011;44750;52.040;7.472;2022-11-20T21:20:06;4.18;;;3.78;;
58972;SDS011;44750;52.040;7.472;2022-11-20T21:25:07;6.78;;;4.30;;
58972;SDS011;44750;52.040;7.472;2022-11-20T21:30:07;3.50;;;3.20;;
58972;SDS011;44750;52.040;7.472;2022-11-20T21:35:08;4.78;;;4.28;;
58972;SDS011;44750;52.040;7.472;2022-11-20T21:40:08;4.32;;;3.50;;
58972;SDS011;44750;52.040;7.472;2022-11-20T21:45:09;6.00;;;4.03;;
58972;SDS011;44750;52.040;7.472;2022-11-20T21:50:09;5.15;;;3.90;;
58972;SDS011;44750;52.040;7.472;2022-11-20T21:55:09;5.15;;;4.18;;
58972;SDS011;44750;52.040;7.472;2022-11-20T22:00:13;5.53;;;3.90;;
58972;SDS011;44750;52.040;7.472;2022-11-20T22:05:13;6.15;;;4.32;;
58972;SDS011;44750;52.040;7.472;2022-11-20T22:10:13;7.20;;;4.80;;
58972;SDS011;44750;52.040;7.472;2022-11-20T22:15:14;7.30;;;4.28;;
58972;SDS011;44750;52.040;7.472;2022-11-20T22:20:14;6.75;;;5.72;;
58972;SDS011;44750;52.040;7.472;2022-11-20T22:25:15;4.63;;;3.67;;
58972;SDS011;44750;52.040;7.472;2022-11-20T22:30:15;4.60;;;4.15;;
58972;SDS011;44750;52.040;7.472;2022-11-20T22:35:15;13.27;;;5.67;;
58972;SDS011;44750;52.040;7.472;2022-11-20T22:40:15;4.83;;;4.43;;
58972;SDS011;44750;52.040;7.472;2022-11-20T22:45:16;5.93;;;5.10;;
58972;SDS011;44750;52.040;7.472;2022-11-20T22:50:16;7.82;;;5.93;;
58972;SDS011;44750;52.040;7.472;2022-11-20T22:55:16;6.90;;;5.47;;
58972;SDS011;44750;52.040;7.472;2022-11-20T23:00:17;7.13;;;6.15;;
58972;SDS011;44750;52.040;7.472;2022-11-20T23:05:17;7.07;;;6.15;;
58972;SDS011;44750;52.040;7.472;2022-11-20T23:10:17;5.40;;;4.80;;
58972;SDS011;44750;52.040;7.472;2022-11-20T23:15:18;9.05;;;6.63;;
58972;SDS011;44750;52.040;7.472;2022-11-20T23:20:18;8.40;;;6.88;;
58972;SDS011;44750;52.040;7.472;2022-11-20T23:25:18;6.85;;;5.68;;
58972;SDS011;44750;52.040;7.472;2022-11-20T23:30:19;5.60;;;5.10;;
58972;SDS011;44750;52.040;7.472;2022-11-20T23:35:19;7.10;;;5.65;;
58972;SDS011;44750;52.040;7.472;2022-11-20T23:40:20;5.85;;;5.07;;
58972;SDS011;44750;52.040;7.472;2022-11-20T23:45:20;6.68;;;5.85;;
58972;SDS011;44750;52.040;7.472;2022-11-20T23:50:20;15.20;;;6.05;;
58972;SDS011;44750;52.040;7.472;2022-11-20T23:55:20;7.32;;;5.72;;
